createdAt,value
2018-05-11T00:00:10.553Z,5.13
2018-05-11T00:02:39.050Z,5.40
2018-05-11T00:05:07.648Z,5.40
2018-05-11T00:07:36.236Z,5.30
2018-05-11T00:10:06.563Z,4.77
2018-05-11T00:12:36.185Z,5.47
2018-05-11T00:15:04.025Z,4.93
2018-05-11T00:17:32.639Z,5.70
2018-05-11T00:20:02.106Z,5.00
2018-05-11T00:22:31.549Z,5.83
2018-05-11T00:25:00.000Z,6.27
2018-05-11T00:27:28.494Z,5.50
2018-05-11T00:29:57.093Z,5.67
2018-05-11T00:32:25.618Z,5.07
2018-05-11T00:34:55.043Z,5.40
2018-05-11T00:37:23.231Z,4.97
2018-05-11T00:39:51.702Z,5.63
2018-05-11T00:42:20.258Z,4.40
2018-05-11T00:44:49.740Z,4.10
2018-05-11T00:47:19.227Z,5.00
2018-05-11T00:49:48.732Z,3.57
2018-05-11T00:52:18.240Z,3.80
2018-05-11T00:54:47.744Z,4.27
2018-05-11T00:57:19.026Z,3.87
2018-05-11T00:59:47.647Z,3.87
2018-05-11T01:02:16.054Z,3.70
2018-05-11T01:04:44.590Z,3.70
2018-05-11T01:07:13.051Z,4.17
2018-05-11T01:09:41.535Z,3.50
2018-05-11T01:12:10.988Z,4.07
2018-05-11T01:14:40.548Z,4.20
2018-05-11T01:17:09.066Z,3.87
2018-05-11T01:19:38.352Z,4.20
2018-05-11T01:22:06.872Z,4.30
2018-05-11T01:24:35.428Z,3.60
2018-05-11T01:27:03.618Z,2.80
2018-05-11T01:29:32.096Z,4.50
2018-05-11T01:32:00.529Z,4.10
2018-05-11T01:34:28.987Z,3.73
2018-05-11T01:36:57.402Z,3.10
2018-05-11T01:39:25.919Z,4.10
2018-05-11T01:41:54.440Z,2.83
2018-05-11T01:44:22.925Z,3.30
2018-05-11T01:46:51.396Z,3.70
2018-05-11T01:49:19.909Z,3.63
2018-05-11T01:51:48.158Z,3.10
2018-05-11T01:54:16.608Z,3.83
2018-05-11T01:56:45.033Z,3.20
2018-05-11T01:59:13.687Z,5.33
2018-05-11T02:01:42.089Z,3.30
2018-05-11T02:04:10.546Z,4.00
2018-05-11T02:06:39.010Z,3.43
2018-05-11T02:09:07.097Z,3.70
2018-05-11T02:11:35.335Z,3.80
2018-05-11T02:14:03.558Z,3.93
2018-05-11T02:16:32.067Z,3.43
2018-05-11T02:19:00.534Z,3.57
2018-05-11T02:21:28.981Z,3.00
2018-05-11T02:23:57.617Z,3.60
2018-05-11T02:26:25.693Z,4.40
2018-05-11T02:28:53.794Z,3.80
2018-05-11T02:31:23.050Z,3.20
2018-05-11T02:33:51.450Z,3.90
2018-05-11T02:36:19.879Z,3.47
2018-05-11T02:38:48.174Z,4.23
2018-05-11T02:41:16.225Z,3.50
2018-05-11T02:43:44.852Z,4.20
2018-05-11T02:46:13.286Z,4.30
2018-05-11T02:48:41.789Z,4.30
2018-05-11T02:51:10.305Z,4.07
2018-05-11T02:53:38.848Z,4.00
2018-05-11T02:56:08.137Z,3.77
2018-05-11T02:58:36.651Z,3.90
2018-05-11T03:01:05.174Z,3.43
2018-05-11T03:03:33.627Z,4.67
2018-05-11T03:06:02.167Z,3.70
2018-05-11T03:08:30.609Z,4.10
2018-05-11T03:10:59.339Z,4.43
2018-05-11T03:13:27.765Z,3.20
2018-05-11T03:15:56.246Z,4.20
2018-05-11T03:18:24.730Z,4.00
2018-05-11T03:20:53.295Z,4.23
2018-05-11T03:23:21.790Z,3.33
2018-05-11T03:25:50.223Z,3.63
2018-05-11T03:28:18.678Z,3.80
2018-05-11T03:30:46.914Z,3.80
2018-05-11T03:33:15.314Z,4.37
2018-05-11T03:35:43.854Z,6.00
2018-05-11T03:38:13.225Z,3.73
2018-05-11T03:40:41.709Z,4.10
2018-05-11T03:43:09.893Z,3.87
2018-05-11T03:45:38.405Z,3.20
2018-05-11T03:48:07.090Z,4.20
2018-05-11T03:50:35.547Z,4.63
2018-05-11T03:53:04.146Z,4.60
2018-05-11T03:55:36.047Z,3.53
2018-05-11T03:58:04.598Z,4.20
2018-05-11T04:00:33.089Z,3.70
2018-05-11T04:03:12.801Z,4.10
2018-05-11T04:05:52.402Z,5.50
2018-05-11T04:08:33.747Z,4.37
2018-05-11T04:11:02.206Z,5.37
2018-05-11T04:13:30.842Z,5.00
2018-05-11T04:15:59.376Z,4.57
2018-05-11T04:18:27.855Z,5.27
2018-05-11T04:20:56.339Z,4.80
2018-05-11T04:23:24.762Z,4.97
2018-05-11T04:25:53.188Z,4.50
2018-05-11T04:28:21.678Z,4.20
2018-05-11T04:30:50.169Z,5.27
2018-05-11T04:33:18.745Z,4.43
2018-05-11T04:35:47.553Z,4.80
2018-05-11T04:38:16.023Z,5.70
2018-05-11T04:40:44.682Z,5.10
2018-05-11T04:43:13.207Z,5.67
2018-05-11T04:45:41.643Z,6.07
2018-05-11T04:48:10.086Z,4.97
2018-05-11T04:50:38.576Z,5.00
2018-05-11T04:53:08.008Z,5.63
2018-05-11T04:55:36.426Z,5.37
2018-05-11T04:58:07.923Z,5.47
2018-05-11T05:00:36.596Z,6.37
2018-05-11T05:03:05.123Z,5.73
2018-05-11T05:05:33.611Z,4.93
2018-05-11T05:08:02.116Z,6.57
2018-05-11T05:10:30.585Z,5.37
2018-05-11T05:12:59.091Z,5.30
2018-05-11T05:15:28.337Z,5.87
2018-05-11T05:17:56.852Z,6.53
2018-05-11T05:20:25.326Z,5.43
2018-05-11T05:22:54.614Z,6.10
2018-05-11T05:25:23.077Z,5.20
2018-05-11T05:27:54.250Z,5.93
2018-05-11T05:30:22.805Z,6.13
2018-05-11T05:32:51.263Z,5.33
2018-05-11T05:35:19.760Z,6.57
2018-05-11T05:37:48.254Z,5.70
2018-05-11T05:40:16.744Z,6.53
2018-05-11T05:42:45.020Z,6.40
2018-05-11T05:45:13.489Z,6.43
2018-05-11T05:47:41.978Z,6.13
2018-05-11T05:50:10.226Z,5.23
2018-05-11T05:52:38.690Z,7.00
2018-05-11T05:55:07.188Z,6.30
2018-05-11T05:57:40.081Z,5.60
2018-05-11T06:00:08.446Z,6.50
2018-05-11T06:02:36.893Z,7.30
2018-05-11T06:05:05.313Z,7.40
2018-05-11T06:07:33.735Z,6.90
2018-05-11T06:10:02.994Z,7.27
2018-05-11T06:12:31.473Z,8.70
2018-05-11T06:14:59.886Z,8.60
2018-05-11T06:17:28.343Z,7.97
2018-05-11T06:19:56.795Z,8.30
2018-05-11T06:22:25.214Z,9.40
2018-05-11T06:24:53.696Z,9.73
2018-05-11T06:27:22.378Z,9.17
2018-05-11T06:29:51.174Z,9.20
2018-05-11T06:32:19.669Z,9.10
2018-05-11T06:34:48.134Z,10.20
2018-05-11T06:37:16.693Z,9.40
2018-05-11T06:39:45.233Z,7.50
2018-05-11T06:42:14.807Z,7.90
2018-05-11T06:44:43.311Z,6.97
2018-05-11T06:47:12.495Z,9.07
2018-05-11T06:49:40.890Z,8.33
2018-05-11T06:52:09.341Z,7.00
2018-05-11T06:54:37.760Z,7.90
2018-05-11T06:57:06.230Z,8.47
2018-05-11T06:59:34.694Z,8.30
2018-05-11T07:02:03.188Z,9.50
2018-05-11T07:04:31.694Z,7.40
2018-05-11T07:07:00.177Z,10.27
2018-05-11T07:09:28.652Z,8.70
2018-05-11T07:11:57.917Z,8.70
2018-05-11T07:14:26.411Z,7.87
2018-05-11T07:16:56.754Z,7.37
2018-05-11T07:19:25.452Z,7.83
2018-05-11T07:22:02.141Z,8.13
2018-05-11T07:24:30.835Z,7.30
2018-05-11T07:26:59.455Z,8.57
2018-05-11T07:29:27.987Z,8.73
2018-05-11T07:31:56.506Z,7.93
2018-05-11T07:34:29.153Z,8.60
2018-05-11T07:36:57.679Z,8.00
2018-05-11T07:39:26.197Z,8.37
2018-05-11T07:41:56.794Z,7.20
2018-05-11T07:44:25.367Z,7.70
2018-05-11T07:46:53.853Z,7.37
2018-05-11T07:49:23.585Z,7.60
2018-05-11T07:51:53.165Z,10.90
2018-05-11T07:54:22.443Z,8.53
2018-05-11T07:56:50.990Z,9.67
2018-05-11T07:59:19.487Z,9.10
2018-05-11T08:01:48.020Z,10.53
2018-05-11T08:04:17.508Z,10.40
2018-05-11T08:06:46.899Z,9.17
2018-05-11T08:09:15.477Z,10.37
2018-05-11T08:11:43.962Z,10.40
2018-05-11T08:14:12.547Z,10.63
2018-05-11T08:19:24.367Z,10.93
2018-05-11T08:22:02.645Z,11.80
2018-05-11T08:24:31.806Z,11.10
2018-05-11T08:27:00.328Z,11.70
2018-05-11T08:29:32.260Z,11.30
2018-05-11T08:32:00.731Z,12.10
2018-05-11T08:34:32.287Z,11.33
2018-05-11T08:39:53.347Z,12.50
2018-05-11T08:42:21.861Z,10.80
2018-05-11T08:47:52.857Z,12.53
2018-05-11T08:50:21.354Z,13.30
2018-05-11T08:52:49.858Z,11.27
2018-05-11T08:55:37.572Z,12.90
2018-05-11T08:58:06.077Z,12.63
2018-05-11T09:00:40.106Z,13.00
2018-05-11T09:09:03.287Z,14.40
2018-05-11T09:11:38.139Z,13.90
2018-05-11T09:14:07.398Z,12.77
2018-05-11T09:16:35.617Z,15.43
2018-05-11T09:19:04.916Z,15.43
2018-05-11T09:21:33.445Z,14.87
2018-05-11T09:24:02.814Z,16.80
2018-05-11T09:26:32.599Z,17.33
2018-05-11T09:32:24.902Z,17.07
2018-05-11T09:34:55.126Z,14.63
2018-05-11T09:37:34.285Z,14.13
2018-05-11T09:40:03.974Z,15.50
2018-05-11T09:42:36.557Z,14.27
2018-05-11T09:50:55.115Z,17.27
2018-05-11T09:53:29.162Z,15.47
2018-05-11T09:55:57.638Z,27.00
2018-05-11T10:01:29.210Z,18.67
2018-05-11T10:03:57.418Z,18.53
2018-05-11T10:06:25.882Z,19.23
2018-05-11T10:08:55.179Z,18.97
2018-05-11T10:14:16.916Z,18.50
2018-05-11T10:16:45.427Z,20.90
2018-05-11T10:22:05.751Z,20.40
2018-05-11T10:24:56.487Z,18.77
2018-05-11T10:27:45.202Z,17.87
2018-05-11T10:30:13.635Z,17.57
2018-05-11T10:32:42.339Z,17.10
2018-05-11T10:38:05.872Z,18.93
2018-05-11T10:40:34.342Z,18.07
2018-05-11T10:43:02.687Z,16.03
2018-05-11T10:45:41.179Z,17.63
2018-05-11T10:51:02.661Z,18.80
2018-05-11T10:56:30.612Z,17.20
2018-05-11T10:58:58.753Z,18.00
2018-05-11T11:01:27.218Z,16.63
2018-05-11T11:03:55.669Z,18.17
2018-05-11T11:06:24.127Z,16.90
2018-05-11T11:08:52.598Z,18.83
2018-05-11T11:11:38.351Z,19.20
2018-05-11T11:14:07.602Z,15.47
2018-05-11T11:16:39.732Z,14.43
2018-05-11T11:19:08.202Z,15.80
2018-05-11T11:21:36.706Z,16.33
2018-05-11T11:24:06.192Z,13.93
2018-05-11T11:26:34.303Z,16.63
2018-05-11T11:29:02.780Z,16.97
2018-05-11T11:31:31.298Z,17.40
2018-05-11T11:33:59.806Z,16.47
2018-05-11T11:42:11.600Z,9.67
2018-05-11T11:44:40.115Z,16.77
2018-05-11T11:47:22.055Z,14.03
2018-05-11T11:52:30.031Z,14.63
2018-05-11T11:54:59.301Z,16.53
2018-05-11T11:57:27.767Z,16.07
2018-05-11T12:00:03.481Z,16.10
2018-05-11T12:02:35.596Z,14.77
2018-05-11T12:07:49.616Z,13.60
2018-05-11T12:10:21.206Z,12.40
2018-05-11T12:12:49.641Z,13.70
2018-05-11T12:15:18.146Z,17.53
2018-05-11T12:17:57.216Z,15.23
2018-05-11T12:20:25.678Z,13.70
2018-05-11T12:28:35.847Z,12.90
2018-05-11T12:31:04.390Z,13.73
2018-05-11T12:33:33.643Z,15.03
2018-05-11T12:36:02.925Z,14.20
2018-05-11T12:38:31.382Z,9.63
2018-05-11T12:41:02.613Z,12.20
2018-05-11T12:43:31.145Z,10.57
2018-05-11T12:45:59.668Z,10.10
2018-05-11T12:48:29.805Z,9.93
2018-05-11T12:50:58.488Z,11.53
2018-05-11T12:53:27.816Z,10.57
2018-05-11T12:55:56.328Z,10.20
2018-05-11T12:58:25.364Z,11.40
2018-05-11T13:00:57.019Z,12.13
2018-05-11T13:03:25.709Z,11.00
2018-05-11T13:06:01.066Z,13.00
2018-05-11T13:08:29.755Z,8.80
2018-05-11T13:11:00.543Z,10.80
2018-05-11T13:13:30.407Z,10.03
2018-05-11T13:15:58.973Z,9.37
2018-05-11T13:18:27.517Z,10.03
2018-05-11T13:20:56.094Z,10.10
2018-05-11T13:23:25.062Z,9.00
2018-05-11T13:25:54.098Z,10.13
2018-05-11T13:28:22.619Z,6.93
2018-05-11T13:30:51.133Z,8.77
2018-05-11T13:33:20.252Z,8.20
2018-05-11T13:35:49.552Z,10.20
2018-05-11T13:38:18.139Z,9.37
2018-05-11T13:40:47.027Z,9.17
2018-05-11T13:43:17.160Z,7.93
2018-05-11T13:45:45.424Z,7.07
2018-05-11T13:48:14.036Z,6.70
2018-05-11T13:50:43.032Z,6.80
2018-05-11T13:53:11.655Z,7.47
2018-05-11T13:55:40.145Z,7.27
2018-05-11T13:58:08.700Z,7.87
2018-05-11T14:00:37.360Z,8.17
2018-05-11T14:03:06.052Z,6.50
2018-05-11T14:05:41.773Z,7.50
2018-05-11T14:08:12.444Z,6.70
2018-05-11T14:10:45.921Z,8.33
2018-05-11T14:16:18.962Z,6.70
2018-05-11T14:18:49.224Z,5.63
2018-05-11T14:21:37.546Z,7.80
2018-05-11T14:24:05.473Z,6.80
2018-05-11T14:26:39.701Z,6.60
2018-05-11T14:29:08.260Z,5.40
2018-05-11T14:31:37.315Z,7.33
2018-05-11T14:34:05.527Z,5.63
2018-05-11T14:36:34.014Z,5.33
2018-05-11T14:39:02.656Z,6.03
2018-05-11T14:41:49.948Z,5.93
2018-05-11T14:44:18.572Z,4.93
2018-05-11T14:46:47.066Z,5.17
2018-05-11T14:49:15.601Z,4.93
2018-05-11T14:51:44.115Z,7.20
2018-05-11T14:54:12.605Z,6.30
2018-05-11T14:56:41.088Z,5.70
2018-05-11T14:59:09.572Z,5.90
2018-05-11T15:01:38.111Z,6.47
2018-05-11T15:04:06.722Z,5.90
2018-05-11T15:06:35.191Z,6.63
2018-05-11T15:09:03.069Z,5.50
2018-05-11T15:11:31.568Z,4.70
2018-05-11T15:16:45.645Z,4.27
2018-05-11T15:19:14.190Z,4.37
2018-05-11T15:21:42.403Z,5.03
2018-05-11T15:24:10.958Z,4.77
2018-05-11T15:26:39.450Z,4.63
2018-05-11T15:29:07.872Z,4.67
2018-05-11T15:31:36.485Z,4.77
2018-05-11T15:34:20.267Z,4.60
2018-05-11T15:36:48.860Z,5.10
2018-05-11T15:39:17.404Z,4.70
2018-05-11T15:44:48.801Z,5.60
2018-05-11T15:47:20.654Z,4.90
2018-05-11T15:49:49.179Z,5.13
2018-05-11T15:52:17.617Z,5.30
2018-05-11T15:54:47.946Z,4.57
2018-05-11T15:57:16.441Z,4.13
2018-05-11T15:59:44.913Z,4.40
2018-05-11T16:02:13.350Z,4.60
2018-05-11T16:04:41.868Z,5.50
2018-05-11T16:07:11.766Z,4.70
2018-05-11T16:09:40.218Z,4.00
2018-05-11T16:12:08.730Z,4.63
2018-05-11T16:14:47.196Z,4.80
2018-05-11T16:17:15.761Z,4.90
2018-05-11T16:19:44.263Z,4.77
2018-05-11T16:22:12.763Z,4.50
2018-05-11T16:24:41.283Z,5.83
2018-05-11T16:27:09.552Z,4.60
2018-05-11T16:29:38.092Z,5.20
2018-05-11T16:32:06.603Z,6.13
2018-05-11T16:34:35.077Z,5.20
2018-05-11T16:37:03.545Z,6.27
2018-05-11T16:39:32.079Z,5.40
2018-05-11T16:45:07.726Z,6.03
2018-05-11T16:47:36.344Z,5.73
2018-05-11T16:50:04.568Z,5.00
2018-05-11T16:52:33.186Z,5.00
2018-05-11T16:55:02.192Z,5.57
2018-05-11T16:57:30.675Z,5.03
2018-05-11T16:59:59.951Z,5.60
2018-05-11T17:02:28.495Z,5.03
2018-05-11T17:04:57.021Z,4.87
2018-05-11T17:07:29.223Z,4.03
2018-05-11T17:09:58.259Z,6.33
2018-05-11T17:12:26.824Z,5.27
2018-05-11T17:14:55.301Z,5.20
2018-05-11T17:17:23.920Z,4.33
2018-05-11T17:19:53.465Z,4.17
2018-05-11T17:22:21.559Z,4.40
2018-05-11T17:24:50.040Z,3.70
2018-05-11T17:27:18.467Z,4.20
2018-05-11T17:29:46.920Z,4.67
2018-05-11T17:32:15.316Z,4.00
2018-05-11T17:34:43.911Z,4.00
2018-05-11T17:37:12.393Z,4.47
2018-05-11T17:39:40.932Z,4.80
2018-05-11T17:42:09.344Z,5.10
2018-05-11T17:44:40.865Z,4.50
2018-05-11T17:47:11.179Z,4.43
2018-05-11T17:49:39.650Z,4.20
2018-05-11T17:52:08.651Z,4.53
2018-05-11T17:54:37.346Z,5.13
2018-05-11T17:57:05.862Z,3.87
2018-05-11T17:59:34.551Z,6.50
2018-05-11T18:02:03.109Z,6.53
2018-05-11T18:04:31.802Z,6.43
2018-05-11T18:07:01.148Z,5.33
2018-05-11T18:09:29.640Z,6.03
2018-05-11T18:11:58.299Z,10.80
2018-05-11T18:14:26.886Z,5.33
2018-05-11T18:17:13.831Z,4.70
2018-05-11T18:19:43.046Z,5.37
2018-05-11T18:22:11.473Z,15.30
2018-05-11T18:24:39.905Z,5.00
2018-05-11T18:27:08.412Z,5.27
2018-05-11T18:29:36.899Z,5.00
2018-05-11T18:32:04.919Z,4.50
2018-05-11T18:34:33.384Z,3.90
2018-05-11T18:37:01.832Z,5.67
2018-05-11T18:39:30.506Z,5.73
2018-05-11T18:41:58.963Z,5.23
2018-05-11T18:44:27.450Z,7.37
2018-05-11T18:46:55.713Z,6.10
2018-05-11T18:49:24.464Z,4.80
2018-05-11T18:51:53.750Z,5.63
2018-05-11T18:54:24.277Z,5.83
2018-05-11T18:56:56.535Z,6.07
2018-05-11T18:59:26.046Z,6.73
2018-05-11T19:01:54.469Z,4.20
2018-05-11T19:04:25.016Z,5.00
2018-05-11T19:06:53.673Z,8.73
2018-05-11T19:09:23.043Z,21.07
2018-05-11T19:14:44.615Z,4.30
2018-05-11T19:17:18.785Z,4.77
2018-05-11T19:19:47.247Z,5.33
2018-05-11T19:22:21.738Z,6.30
2018-05-11T19:24:50.181Z,7.80
2018-05-11T19:27:19.027Z,5.60
2018-05-11T19:32:39.886Z,7.60
2018-05-11T19:35:08.341Z,8.80
2018-05-11T19:37:36.826Z,13.33
2018-05-11T19:40:05.474Z,6.50
2018-05-11T19:42:33.958Z,7.50
2018-05-11T19:45:06.134Z,8.03
2018-05-11T19:47:34.607Z,6.33
2018-05-11T19:50:03.062Z,6.53
2018-05-11T19:52:31.530Z,7.67
2018-05-11T19:55:05.771Z,7.23
2018-05-11T20:00:27.793Z,6.30
2018-05-11T20:03:18.898Z,6.30
2018-05-11T20:05:47.423Z,6.20
2018-05-11T20:08:16.678Z,6.53
2018-05-11T20:16:31.479Z,5.70
2018-05-11T20:18:59.970Z,7.07
2018-05-11T20:21:33.974Z,6.33
2018-05-11T20:24:02.283Z,6.40
2018-05-11T20:26:30.695Z,6.63
2018-05-11T20:28:59.101Z,5.87
2018-05-11T20:34:25.904Z,6.73
2018-05-11T20:39:47.226Z,6.03
2018-05-11T20:42:15.707Z,5.97
2018-05-11T20:44:44.247Z,6.20
2018-05-11T20:47:13.095Z,6.30
2018-05-11T20:49:41.558Z,7.20
2018-05-11T20:52:09.958Z,6.23
2018-05-11T20:54:38.366Z,7.00
2018-05-11T20:57:06.814Z,6.20
2018-05-11T21:02:28.077Z,7.93
2018-05-11T21:04:57.456Z,7.30
2018-05-11T21:10:20.906Z,8.27
2018-05-11T21:12:50.094Z,7.70
2018-05-11T21:15:18.505Z,8.10
2018-05-11T21:17:46.667Z,8.03
2018-05-11T21:20:15.175Z,8.73
2018-05-11T21:22:43.601Z,7.73
2018-05-11T21:25:12.073Z,7.57
2018-05-11T21:28:04.289Z,8.50
2018-05-11T21:33:13.468Z,7.97
2018-05-11T21:35:42.031Z,8.30
2018-05-11T21:38:10.533Z,8.20
2018-05-11T21:40:39.109Z,8.40
2018-05-11T21:43:32.313Z,8.00
2018-05-11T21:46:04.957Z,7.93
2018-05-11T21:48:37.234Z,7.50
2018-05-11T21:51:05.769Z,8.30
2018-05-11T21:53:34.310Z,7.63
2018-05-11T21:56:02.825Z,7.63
2018-05-11T21:58:31.346Z,7.70
2018-05-11T22:01:04.393Z,7.30
2018-05-11T22:03:57.764Z,8.30
2018-05-11T22:06:27.158Z,7.23
2018-05-11T22:09:02.731Z,7.90
2018-05-11T22:11:31.442Z,7.27
2018-05-11T22:13:59.854Z,7.40
2018-05-11T22:16:34.653Z,7.60
2018-05-11T22:21:56.935Z,7.07
2018-05-11T22:24:25.387Z,7.30
2018-05-11T22:26:53.872Z,8.00
2018-05-11T22:29:34.523Z,8.27
2018-05-11T22:32:03.025Z,7.83
2018-05-11T22:34:35.158Z,8.27
2018-05-11T22:37:04.420Z,9.03
2018-05-11T22:39:32.876Z,8.20
2018-05-11T22:55:06.245Z,7.70
2018-05-11T22:57:36.461Z,7.80
2018-05-11T23:00:27.744Z,9.20
2018-05-11T23:02:56.411Z,8.93
2018-05-11T23:05:33.261Z,7.70
2018-05-11T23:08:01.737Z,7.73
2018-05-11T23:10:30.250Z,8.07
2018-05-11T23:12:59.529Z,8.03
2018-05-11T23:15:35.663Z,8.33
2018-05-11T23:18:07.269Z,7.67
2018-05-11T23:20:42.026Z,7.67
2018-05-11T23:23:10.560Z,7.33
2018-05-11T23:25:43.317Z,8.47
2018-05-11T23:28:14.863Z,7.70
2018-05-11T23:30:44.170Z,8.73
2018-05-11T23:33:19.737Z,8.60
2018-05-11T23:35:48.175Z,9.07
2018-05-11T23:38:16.766Z,8.70
2018-05-11T23:40:45.197Z,8.43
2018-05-11T23:43:32.242Z,8.43
2018-05-11T23:46:01.530Z,8.00
2018-05-11T23:48:29.977Z,9.33
2018-05-11T23:51:03.770Z,8.80
2018-05-11T23:53:32.256Z,8.87
2018-05-11T23:56:00.741Z,9.47
